sensor_id;sensor_type;location;lat;lon;timestamp;P1;durP1;ratioP1;P2;durP2;ratioP2
76380;SDS011;65202;52.520;10.528;2023-02-13T00:00:45;44.70;;;23.63;;
76380;SDS011;65202;52.520;10.528;2023-02-13T00:03:13;47.95;;;23.30;;
76380;SDS011;65202;52.520;10.528;2023-02-13T00:05:40;43.95;;;23.15;;
76380;SDS011;65202;52.520;10.528;2023-02-13T00:08:07;48.33;;;23.27;;
76380;SDS011;65202;52.520;10.528;2023-02-13T00:10:35;50.00;;;22.48;;
76380;SDS011;65202;52.520;10.528;2023-02-13T00:13:03;49.00;;;24.38;;
76380;SDS011;65202;52.520;10.528;2023-02-13T00:15:30;43.97;;;22.60;;
76380;SDS011;65202;52.520;10.528;2023-02-13T00:17:58;42.33;;;22.13;;
76380;SDS011;65202;52.520;10.528;2023-02-13T00:20:25;42.90;;;22.45;;
76380;SDS011;65202;52.520;10.528;2023-02-13T00:22:53;39.03;;;20.02;;
76380;SDS011;65202;52.520;10.528;2023-02-13T00:25:20;43.45;;;20.90;;
76380;SDS011;65202;52.520;10.528;2023-02-13T00:27:49;45.72;;;22.65;;
76380;SDS011;65202;52.520;10.528;2023-02-13T00:30:17;42.42;;;21.00;;
76380;SDS011;65202;52.520;10.528;2023-02-13T00:32:44;47.80;;;27.60;;
76380;SDS011;65202;52.520;10.528;2023-02-13T00:35:12;45.38;;;24.48;;
76380;SDS011;65202;52.520;10.528;2023-02-13T00:37:39;43.08;;;22.88;;
76380;SDS011;65202;52.520;10.528;2023-02-13T00:40:06;42.05;;;21.67;;
76380;SDS011;65202;52.520;10.528;2023-02-13T00:42:34;53.03;;;25.02;;
76380;SDS011;65202;52.520;10.528;2023-02-13T00:45:01;43.50;;;22.60;;
76380;SDS011;65202;52.520;10.528;2023-02-13T00:47:28;55.05;;;24.80;;
76380;SDS011;65202;52.520;10.528;2023-02-13T00:49:56;48.40;;;23.60;;
76380;SDS011;65202;52.520;10.528;2023-02-13T00:52:23;54.65;;;26.67;;
76380;SDS011;65202;52.520;10.528;2023-02-13T00:54:50;48.78;;;26.05;;
76380;SDS011;65202;52.520;10.528;2023-02-13T00:57:17;57.65;;;27.15;;
76380;SDS011;65202;52.520;10.528;2023-02-13T00:59:44;53.60;;;26.55;;
76380;SDS011;65202;52.520;10.528;2023-02-13T01:02:11;49.78;;;25.23;;
76380;SDS011;65202;52.520;10.528;2023-02-13T01:04:39;50.00;;;26.17;;
76380;SDS011;65202;52.520;10.528;2023-02-13T01:07:06;46.50;;;23.25;;
76380;SDS011;65202;52.520;10.528;2023-02-13T01:09:33;45.22;;;23.92;;
76380;SDS011;65202;52.520;10.528;2023-02-13T01:12:00;44.92;;;24.60;;
76380;SDS011;65202;52.520;10.528;2023-02-13T01:14:28;40.40;;;22.13;;
76380;SDS011;65202;52.520;10.528;2023-02-13T01:16:55;41.47;;;22.98;;
76380;SDS011;65202;52.520;10.528;2023-02-13T01:19:23;42.85;;;23.20;;
76380;SDS011;65202;52.520;10.528;2023-02-13T01:21:50;44.17;;;23.58;;
76380;SDS011;65202;52.520;10.528;2023-02-13T01:24:17;44.92;;;23.48;;
76380;SDS011;65202;52.520;10.528;2023-02-13T01:26:44;42.42;;;22.67;;
76380;SDS011;65202;52.520;10.528;2023-02-13T01:29:12;40.42;;;22.33;;
76380;SDS011;65202;52.520;10.528;2023-02-13T01:31:39;42.45;;;21.70;;
76380;SDS011;65202;52.520;10.528;2023-02-13T01:34:07;40.33;;;22.08;;
76380;SDS011;65202;52.520;10.528;2023-02-13T01:36:34;39.88;;;22.65;;
76380;SDS011;65202;52.520;10.528;2023-02-13T01:39:01;41.50;;;23.35;;
76380;SDS011;65202;52.520;10.528;2023-02-13T01:41:28;41.72;;;22.55;;
76380;SDS011;65202;52.520;10.528;2023-02-13T01:43:56;44.53;;;23.42;;
76380;SDS011;65202;52.520;10.528;2023-02-13T01:46:27;43.05;;;22.10;;
76380;SDS011;65202;52.520;10.528;2023-02-13T01:49:09;43.05;;;23.23;;
76380;SDS011;65202;52.520;10.528;2023-02-13T01:54:14;45.90;;;23.30;;
76380;SDS011;65202;52.520;10.528;2023-02-13T01:56:51;42.47;;;22.92;;
76380;SDS011;65202;52.520;10.528;2023-02-13T01:59:26;38.97;;;21.92;;
76380;SDS011;65202;52.520;10.528;2023-02-13T02:02:00;42.25;;;23.10;;
76380;SDS011;65202;52.520;10.528;2023-02-13T02:04:32;44.22;;;23.30;;
76380;SDS011;65202;52.520;10.528;2023-02-13T02:07:07;46.28;;;23.92;;
76380;SDS011;65202;52.520;10.528;2023-02-13T02:09:50;38.42;;;22.42;;
76380;SDS011;65202;52.520;10.528;2023-02-13T02:12:31;47.35;;;24.13;;
76380;SDS011;65202;52.520;10.528;2023-02-13T02:15:08;43.17;;;23.83;;
76380;SDS011;65202;52.520;10.528;2023-02-13T02:17:35;44.17;;;23.88;;
76380;SDS011;65202;52.520;10.528;2023-02-13T02:20:23;47.47;;;24.10;;
76380;SDS011;65202;52.520;10.528;2023-02-13T02:29:28;47.00;;;23.73;;
76380;SDS011;65202;52.520;10.528;2023-02-13T02:38:39;43.15;;;23.40;;
76380;SDS011;65202;52.520;10.528;2023-02-13T02:41:41;47.22;;;24.48;;
76380;SDS011;65202;52.520;10.528;2023-02-13T02:44:30;44.80;;;23.35;;
76380;SDS011;65202;52.520;10.528;2023-02-13T02:50:25;44.00;;;22.85;;
76380;SDS011;65202;52.520;10.528;2023-02-13T02:53:22;44.47;;;23.02;;
76380;SDS011;65202;52.520;10.528;2023-02-13T02:56:12;42.65;;;22.30;;
76380;SDS011;65202;52.520;10.528;2023-02-13T03:01:55;41.33;;;22.23;;
76380;SDS011;65202;52.520;10.528;2023-02-13T03:04:47;43.10;;;22.30;;
76380;SDS011;65202;52.520;10.528;2023-02-13T03:07:38;47.38;;;24.20;;
76380;SDS011;65202;52.520;10.528;2023-02-13T03:10:16;43.22;;;22.98;;
76380;SDS011;65202;52.520;10.528;2023-02-13T03:13:27;45.40;;;23.90;;
76380;SDS011;65202;52.520;10.528;2023-02-13T03:16:16;51.20;;;24.27;;
76380;SDS011;65202;52.520;10.528;2023-02-13T03:28:35;44.35;;;23.73;;
76380;SDS011;65202;52.520;10.528;2023-02-13T03:31:30;44.80;;;23.77;;
76380;SDS011;65202;52.520;10.528;2023-02-13T03:34:16;49.58;;;23.38;;
76380;SDS011;65202;52.520;10.528;2023-02-13T03:36:52;50.72;;;24.38;;
76380;SDS011;65202;52.520;10.528;2023-02-13T03:45:22;46.47;;;23.73;;
76380;SDS011;65202;52.520;10.528;2023-02-13T03:48:17;52.63;;;24.55;;
76380;SDS011;65202;52.520;10.528;2023-02-13T03:51:11;51.08;;;23.60;;
76380;SDS011;65202;52.520;10.528;2023-02-13T03:53:48;46.38;;;23.02;;
76380;SDS011;65202;52.520;10.528;2023-02-13T03:56:21;50.75;;;24.42;;
76380;SDS011;65202;52.520;10.528;2023-02-13T03:59:17;46.80;;;24.30;;
76380;SDS011;65202;52.520;10.528;2023-02-13T04:02:11;55.00;;;26.00;;
76380;SDS011;65202;52.520;10.528;2023-02-13T04:04:45;54.40;;;25.27;;
76380;SDS011;65202;52.520;10.528;2023-02-13T04:07:24;52.03;;;23.95;;
76380;SDS011;65202;52.520;10.528;2023-02-13T04:09:59;52.33;;;24.70;;
76380;SDS011;65202;52.520;10.528;2023-02-13T04:12:39;55.75;;;25.73;;
76380;SDS011;65202;52.520;10.528;2023-02-13T04:15:21;52.38;;;25.38;;
76380;SDS011;65202;52.520;10.528;2023-02-13T04:18:08;49.90;;;25.90;;
76380;SDS011;65202;52.520;10.528;2023-02-13T04:20:43;52.15;;;25.70;;
76380;SDS011;65202;52.520;10.528;2023-02-13T04:23:11;60.25;;;27.55;;
76380;SDS011;65202;52.520;10.528;2023-02-13T04:25:40;54.88;;;27.25;;
76380;SDS011;65202;52.520;10.528;2023-02-13T04:28:12;56.67;;;26.52;;
76380;SDS011;65202;52.520;10.528;2023-02-13T04:30:40;60.92;;;27.13;;
76380;SDS011;65202;52.520;10.528;2023-02-13T04:33:08;63.90;;;26.13;;
76380;SDS011;65202;52.520;10.528;2023-02-13T04:35:35;65.43;;;28.10;;
76380;SDS011;65202;52.520;10.528;2023-02-13T04:38:02;58.80;;;28.52;;
76380;SDS011;65202;52.520;10.528;2023-02-13T04:40:30;58.22;;;26.92;;
76380;SDS011;65202;52.520;10.528;2023-02-13T04:42:57;71.32;;;29.73;;
76380;SDS011;65202;52.520;10.528;2023-02-13T04:45:25;68.88;;;30.30;;
76380;SDS011;65202;52.520;10.528;2023-02-13T04:47:53;61.42;;;27.98;;
76380;SDS011;65202;52.520;10.528;2023-02-13T04:50:22;59.50;;;28.50;;
76380;SDS011;65202;52.520;10.528;2023-02-13T04:52:54;70.57;;;30.75;;
76380;SDS011;65202;52.520;10.528;2023-02-13T04:55:24;64.38;;;30.85;;
76380;SDS011;65202;52.520;10.528;2023-02-13T04:57:53;66.35;;;29.65;;
76380;SDS011;65202;52.520;10.528;2023-02-13T05:00:22;67.63;;;30.20;;
76380;SDS011;65202;52.520;10.528;2023-02-13T05:02:52;62.47;;;29.05;;
76380;SDS011;65202;52.520;10.528;2023-02-13T05:05:20;55.08;;;27.98;;
76380;SDS011;65202;52.520;10.528;2023-02-13T05:07:47;65.07;;;30.02;;
76380;SDS011;65202;52.520;10.528;2023-02-13T05:10:14;66.13;;;30.02;;
76380;SDS011;65202;52.520;10.528;2023-02-13T05:12:42;62.70;;;30.40;;
76380;SDS011;65202;52.520;10.528;2023-02-13T05:15:09;61.22;;;29.83;;
76380;SDS011;65202;52.520;10.528;2023-02-13T05:17:36;69.75;;;31.23;;
76380;SDS011;65202;52.520;10.528;2023-02-13T05:20:04;67.78;;;31.92;;
76380;SDS011;65202;52.520;10.528;2023-02-13T05:22:32;77.47;;;31.80;;
76380;SDS011;65202;52.520;10.528;2023-02-13T05:25:18;68.03;;;30.45;;
76380;SDS011;65202;52.520;10.528;2023-02-13T05:27:45;58.55;;;28.50;;
76380;SDS011;65202;52.520;10.528;2023-02-13T05:30:12;54.15;;;27.45;;
76380;SDS011;65202;52.520;10.528;2023-02-13T05:32:40;51.75;;;25.80;;
76380;SDS011;65202;52.520;10.528;2023-02-13T05:35:09;49.50;;;25.25;;
76380;SDS011;65202;52.520;10.528;2023-02-13T05:37:36;43.65;;;24.40;;
76380;SDS011;65202;52.520;10.528;2023-02-13T05:40:03;56.03;;;26.83;;
76380;SDS011;65202;52.520;10.528;2023-02-13T05:42:31;53.00;;;27.35;;
76380;SDS011;65202;52.520;10.528;2023-02-13T05:44:58;56.55;;;28.23;;
76380;SDS011;65202;52.520;10.528;2023-02-13T05:47:25;55.65;;;28.52;;
76380;SDS011;65202;52.520;10.528;2023-02-13T05:49:52;69.45;;;35.28;;
76380;SDS011;65202;52.520;10.528;2023-02-13T05:52:19;76.40;;;37.50;;
76380;SDS011;65202;52.520;10.528;2023-02-13T05:54:47;58.42;;;29.55;;
76380;SDS011;65202;52.520;10.528;2023-02-13T05:57:14;72.70;;;31.98;;
76380;SDS011;65202;52.520;10.528;2023-02-13T05:59:41;58.10;;;29.13;;
76380;SDS011;65202;52.520;10.528;2023-02-13T06:02:09;69.50;;;30.08;;
76380;SDS011;65202;52.520;10.528;2023-02-13T06:04:36;58.80;;;29.23;;
76380;SDS011;65202;52.520;10.528;2023-02-13T06:07:04;59.78;;;30.00;;
76380;SDS011;65202;52.520;10.528;2023-02-13T06:09:31;61.70;;;30.05;;
76380;SDS011;65202;52.520;10.528;2023-02-13T06:11:58;55.40;;;28.27;;
76380;SDS011;65202;52.520;10.528;2023-02-13T06:14:25;50.88;;;26.13;;
76380;SDS011;65202;52.520;10.528;2023-02-13T06:16:52;62.28;;;29.35;;
76380;SDS011;65202;52.520;10.528;2023-02-13T06:19:20;57.20;;;28.35;;
76380;SDS011;65202;52.520;10.528;2023-02-13T06:21:47;56.80;;;28.92;;
76380;SDS011;65202;52.520;10.528;2023-02-13T06:24:14;57.80;;;29.05;;
76380;SDS011;65202;52.520;10.528;2023-02-13T06:26:41;57.33;;;27.52;;
76380;SDS011;65202;52.520;10.528;2023-02-13T06:29:08;60.47;;;28.10;;
76380;SDS011;65202;52.520;10.528;2023-02-13T06:31:37;50.67;;;25.52;;
76380;SDS011;65202;52.520;10.528;2023-02-13T06:34:04;56.60;;;28.42;;
76380;SDS011;65202;52.520;10.528;2023-02-13T06:36:31;57.40;;;28.73;;
76380;SDS011;65202;52.520;10.528;2023-02-13T06:38:59;54.28;;;26.80;;
76380;SDS011;65202;52.520;10.528;2023-02-13T06:41:26;56.65;;;27.05;;
76380;SDS011;65202;52.520;10.528;2023-02-13T06:43:53;55.05;;;27.38;;
76380;SDS011;65202;52.520;10.528;2023-02-13T06:46:21;53.75;;;27.85;;
76380;SDS011;65202;52.520;10.528;2023-02-13T06:48:48;53.85;;;27.90;;
76380;SDS011;65202;52.520;10.528;2023-02-13T06:51:15;54.20;;;28.70;;
76380;SDS011;65202;52.520;10.528;2023-02-13T06:53:42;54.17;;;28.45;;
76380;SDS011;65202;52.520;10.528;2023-02-13T06:56:09;52.53;;;27.25;;
76380;SDS011;65202;52.520;10.528;2023-02-13T06:58:37;57.10;;;26.88;;
76380;SDS011;65202;52.520;10.528;2023-02-13T07:01:05;48.10;;;25.27;;
76380;SDS011;65202;52.520;10.528;2023-02-13T07:03:33;56.33;;;28.48;;
76380;SDS011;65202;52.520;10.528;2023-02-13T07:06:00;57.53;;;29.23;;
76380;SDS011;65202;52.520;10.528;2023-02-13T07:08:27;63.67;;;30.70;;
76380;SDS011;65202;52.520;10.528;2023-02-13T07:10:55;50.25;;;25.63;;
76380;SDS011;65202;52.520;10.528;2023-02-13T07:13:22;62.60;;;31.05;;
76380;SDS011;65202;52.520;10.528;2023-02-13T07:15:49;60.70;;;29.40;;
76380;SDS011;65202;52.520;10.528;2023-02-13T07:18:17;61.83;;;30.42;;
76380;SDS011;65202;52.520;10.528;2023-02-13T07:20:44;52.42;;;27.60;;
76380;SDS011;65202;52.520;10.528;2023-02-13T07:23:11;55.90;;;28.75;;
76380;SDS011;65202;52.520;10.528;2023-02-13T07:25:38;50.22;;;26.75;;
76380;SDS011;65202;52.520;10.528;2023-02-13T07:28:06;55.33;;;28.20;;
76380;SDS011;65202;52.520;10.528;2023-02-13T07:30:33;55.35;;;28.35;;
76380;SDS011;65202;52.520;10.528;2023-02-13T07:33:01;52.47;;;25.85;;
76380;SDS011;65202;52.520;10.528;2023-02-13T07:35:30;52.40;;;26.17;;
76380;SDS011;65202;52.520;10.528;2023-02-13T07:37:58;50.50;;;25.88;;
76380;SDS011;65202;52.520;10.528;2023-02-13T07:40:26;54.08;;;26.48;;
76380;SDS011;65202;52.520;10.528;2023-02-13T07:42:54;58.75;;;26.70;;
76380;SDS011;65202;52.520;10.528;2023-02-13T07:45:25;52.15;;;26.08;;
76380;SDS011;65202;52.520;10.528;2023-02-13T07:47:55;49.35;;;25.42;;
76380;SDS011;65202;52.520;10.528;2023-02-13T07:50:23;51.08;;;25.60;;
76380;SDS011;65202;52.520;10.528;2023-02-13T07:52:54;50.17;;;23.92;;
76380;SDS011;65202;52.520;10.528;2023-02-13T07:55:28;70.10;;;35.20;;
76380;SDS011;65202;52.520;10.528;2023-02-13T07:57:56;62.22;;;29.80;;
76380;SDS011;65202;52.520;10.528;2023-02-13T08:00:26;52.00;;;26.10;;
76380;SDS011;65202;52.520;10.528;2023-02-13T08:02:53;48.58;;;25.05;;
76380;SDS011;65202;52.520;10.528;2023-02-13T08:05:21;53.70;;;26.08;;
76380;SDS011;65202;52.520;10.528;2023-02-13T08:07:48;51.72;;;26.50;;
76380;SDS011;65202;52.520;10.528;2023-02-13T08:10:15;55.45;;;27.05;;
76380;SDS011;65202;52.520;10.528;2023-02-13T08:13:00;48.47;;;24.20;;
76380;SDS011;65202;52.520;10.528;2023-02-13T08:15:28;46.67;;;21.83;;
76380;SDS011;65202;52.520;10.528;2023-02-13T08:17:55;46.08;;;23.95;;
76380;SDS011;65202;52.520;10.528;2023-02-13T08:20:22;47.95;;;25.08;;
76380;SDS011;65202;52.520;10.528;2023-02-13T08:22:50;45.28;;;22.52;;
76380;SDS011;65202;52.520;10.528;2023-02-13T08:25:17;46.55;;;23.88;;
76380;SDS011;65202;52.520;10.528;2023-02-13T08:27:45;50.80;;;24.27;;
76380;SDS011;65202;52.520;10.528;2023-02-13T08:30:13;44.25;;;22.05;;
76380;SDS011;65202;52.520;10.528;2023-02-13T08:32:41;47.75;;;23.92;;
76380;SDS011;65202;52.520;10.528;2023-02-13T08:35:20;44.00;;;22.65;;
76380;SDS011;65202;52.520;10.528;2023-02-13T08:37:49;43.78;;;22.80;;
76380;SDS011;65202;52.520;10.528;2023-02-13T08:40:16;43.15;;;22.38;;
76380;SDS011;65202;52.520;10.528;2023-02-13T08:42:44;40.50;;;21.67;;
76380;SDS011;65202;52.520;10.528;2023-02-13T08:45:11;43.65;;;21.92;;
76380;SDS011;65202;52.520;10.528;2023-02-13T08:47:38;44.40;;;21.40;;
76380;SDS011;65202;52.520;10.528;2023-02-13T08:50:06;42.13;;;21.48;;
76380;SDS011;65202;52.520;10.528;2023-02-13T08:52:33;43.53;;;21.73;;
76380;SDS011;65202;52.520;10.528;2023-02-13T08:55:01;47.75;;;22.80;;
76380;SDS011;65202;52.520;10.528;2023-02-13T08:57:29;42.58;;;21.75;;
76380;SDS011;65202;52.520;10.528;2023-02-13T08:59:57;43.35;;;22.27;;
76380;SDS011;65202;52.520;10.528;2023-02-13T09:02:24;44.22;;;22.48;;
76380;SDS011;65202;52.520;10.528;2023-02-13T09:04:51;40.80;;;21.38;;
76380;SDS011;65202;52.520;10.528;2023-02-13T09:07:19;43.70;;;20.00;;
76380;SDS011;65202;52.520;10.528;2023-02-13T09:09:46;45.75;;;21.00;;
76380;SDS011;65202;52.520;10.528;2023-02-13T09:12:13;42.38;;;22.55;;
76380;SDS011;65202;52.520;10.528;2023-02-13T09:14:40;43.00;;;22.38;;
76380;SDS011;65202;52.520;10.528;2023-02-13T09:17:07;43.08;;;22.08;;
76380;SDS011;65202;52.520;10.528;2023-02-13T09:19:35;37.42;;;20.75;;
76380;SDS011;65202;52.520;10.528;2023-02-13T09:22:02;42.63;;;20.50;;
76380;SDS011;65202;52.520;10.528;2023-02-13T09:24:29;36.88;;;19.30;;
76380;SDS011;65202;52.520;10.528;2023-02-13T09:26:56;36.85;;;18.55;;
76380;SDS011;65202;52.520;10.528;2023-02-13T09:29:23;33.22;;;17.38;;
76380;SDS011;65202;52.520;10.528;2023-02-13T09:31:50;33.80;;;17.35;;
76380;SDS011;65202;52.520;10.528;2023-02-13T09:34:18;65.72;;;33.13;;
76380;SDS011;65202;52.520;10.528;2023-02-13T09:36:45;38.75;;;19.67;;
76380;SDS011;65202;52.520;10.528;2023-02-13T09:39:18;31.98;;;17.65;;
76380;SDS011;65202;52.520;10.528;2023-02-13T09:41:47;32.38;;;17.10;;
76380;SDS011;65202;52.520;10.528;2023-02-13T09:47:16;27.55;;;14.43;;
76380;SDS011;65202;52.520;10.528;2023-02-13T09:50:04;23.95;;;13.13;;
76380;SDS011;65202;52.520;10.528;2023-02-13T09:52:40;24.95;;;13.40;;
76380;SDS011;65202;52.520;10.528;2023-02-13T09:55:15;22.60;;;12.90;;
76380;SDS011;65202;52.520;10.528;2023-02-13T09:57:49;22.38;;;12.57;;
76380;SDS011;65202;52.520;10.528;2023-02-13T10:00:31;22.70;;;11.90;;
76380;SDS011;65202;52.520;10.528;2023-02-13T10:06:03;22.55;;;11.55;;
76380;SDS011;65202;52.520;10.528;2023-02-13T10:11:52;20.33;;;11.57;;
76380;SDS011;65202;52.520;10.528;2023-02-13T10:15:05;24.27;;;10.80;;
76380;SDS011;65202;52.520;10.528;2023-02-13T10:17:46;20.50;;;11.43;;
76380;SDS011;65202;52.520;10.528;2023-02-13T10:23:22;21.30;;;11.77;;
76380;SDS011;65202;52.520;10.528;2023-02-13T10:26:17;25.90;;;14.60;;
76380;SDS011;65202;52.520;10.528;2023-02-13T10:29:05;20.02;;;11.18;;
76380;SDS011;65202;52.520;10.528;2023-02-13T10:32:01;19.27;;;11.05;;
76380;SDS011;65202;52.520;10.528;2023-02-13T10:34:36;18.85;;;10.10;;
76380;SDS011;65202;52.520;10.528;2023-02-13T10:37:13;19.35;;;10.32;;
76380;SDS011;65202;52.520;10.528;2023-02-13T10:39:45;17.52;;;10.07;;
76380;SDS011;65202;52.520;10.528;2023-02-13T10:42:19;19.73;;;11.13;;
76380;SDS011;65202;52.520;10.528;2023-02-13T10:45:03;19.73;;;10.80;;
76380;SDS011;65202;52.520;10.528;2023-02-13T10:50:37;26.67;;;12.65;;
76380;SDS011;65202;52.520;10.528;2023-02-13T10:53:27;18.77;;;10.85;;
76380;SDS011;65202;52.520;10.528;2023-02-13T11:02:01;19.70;;;11.35;;
76380;SDS011;65202;52.520;10.528;2023-02-13T11:04:47;19.60;;;10.65;;
76380;SDS011;65202;52.520;10.528;2023-02-13T11:07:22;19.98;;;11.02;;
76380;SDS011;65202;52.520;10.528;2023-02-13T11:09:53;17.83;;;10.57;;
76380;SDS011;65202;52.520;10.528;2023-02-13T11:12:31;21.15;;;10.65;;
76380;SDS011;65202;52.520;10.528;2023-02-13T11:17:32;18.67;;;10.85;;
76380;SDS011;65202;52.520;10.528;2023-02-13T11:20:04;20.53;;;10.23;;
76380;SDS011;65202;52.520;10.528;2023-02-13T11:22:52;18.73;;;10.18;;
76380;SDS011;65202;52.520;10.528;2023-02-13T11:25:20;18.85;;;9.10;;
76380;SDS011;65202;52.520;10.528;2023-02-13T11:27:53;16.48;;;8.82;;
76380;SDS011;65202;52.520;10.528;2023-02-13T11:30:36;14.98;;;8.50;;
76380;SDS011;65202;52.520;10.528;2023-02-13T11:33:05;13.73;;;8.80;;
76380;SDS011;65202;52.520;10.528;2023-02-13T11:36:04;15.48;;;8.20;;
76380;SDS011;65202;52.520;10.528;2023-02-13T11:38:35;14.27;;;8.85;;
76380;SDS011;65202;52.520;10.528;2023-02-13T11:43:47;14.23;;;8.40;;
76380;SDS011;65202;52.520;10.528;2023-02-13T11:46:41;14.03;;;8.20;;
76380;SDS011;65202;52.520;10.528;2023-02-13T11:54:26;12.10;;;7.78;;
76380;SDS011;65202;52.520;10.528;2023-02-13T11:57:08;12.77;;;8.65;;
76380;SDS011;65202;52.520;10.528;2023-02-13T11:59:59;14.10;;;8.45;;
76380;SDS011;65202;52.520;10.528;2023-02-13T12:02:48;11.13;;;7.07;;
76380;SDS011;65202;52.520;10.528;2023-02-13T12:07:54;13.57;;;7.30;;
76380;SDS011;65202;52.520;10.528;2023-02-13T12:10:27;11.23;;;7.80;;
76380;SDS011;65202;52.520;10.528;2023-02-13T12:13:19;14.90;;;7.93;;
76380;SDS011;65202;52.520;10.528;2023-02-13T12:16:01;11.38;;;7.40;;
76380;SDS011;65202;52.520;10.528;2023-02-13T12:18:41;10.25;;;6.82;;
76380;SDS011;65202;52.520;10.528;2023-02-13T12:21:22;11.95;;;7.40;;
76380;SDS011;65202;52.520;10.528;2023-02-13T12:30:03;11.75;;;7.30;;
76380;SDS011;65202;52.520;10.528;2023-02-13T12:33:19;12.85;;;7.70;;
76380;SDS011;65202;52.520;10.528;2023-02-13T12:36:08;14.20;;;8.02;;
76380;SDS011;65202;52.520;10.528;2023-02-13T12:39:02;14.02;;;8.80;;
76380;SDS011;65202;52.520;10.528;2023-02-13T12:45:01;19.48;;;12.30;;
76380;SDS011;65202;52.520;10.528;2023-02-13T12:48:03;11.68;;;8.80;;
76380;SDS011;65202;52.520;10.528;2023-02-13T12:53:32;13.10;;;7.97;;
76380;SDS011;65202;52.520;10.528;2023-02-13T12:56:11;17.23;;;10.25;;
76380;SDS011;65202;52.520;10.528;2023-02-13T12:58:59;12.70;;;9.00;;
76380;SDS011;65202;52.520;10.528;2023-02-13T13:10:17;12.27;;;8.27;;
76380;SDS011;65202;52.520;10.528;2023-02-13T13:13:41;12.52;;;8.35;;
76380;SDS011;65202;52.520;10.528;2023-02-13T13:16:34;15.50;;;10.07;;
76380;SDS011;65202;52.520;10.528;2023-02-13T13:30:58;16.08;;;10.90;;
76380;SDS011;65202;52.520;10.528;2023-02-13T13:33:27;13.35;;;9.18;;
76380;SDS011;65202;52.520;10.528;2023-02-13T13:35:57;13.68;;;9.73;;
76380;SDS011;65202;52.520;10.528;2023-02-13T13:41:26;11.70;;;8.50;;
76380;SDS011;65202;52.520;10.528;2023-02-13T13:50:25;10.68;;;7.75;;
76380;SDS011;65202;52.520;10.528;2023-02-13T13:58:35;11.60;;;8.20;;
76380;SDS011;65202;52.520;10.528;2023-02-13T14:01:16;22.08;;;15.05;;
76380;SDS011;65202;52.520;10.528;2023-02-13T14:04:00;14.80;;;9.23;;
76380;SDS011;65202;52.520;10.528;2023-02-13T14:09:35;23.50;;;17.23;;
76380;SDS011;65202;52.520;10.528;2023-02-13T14:14:51;19.35;;;12.00;;
76380;SDS011;65202;52.520;10.528;2023-02-13T14:23:04;63.53;;;34.53;;
76380;SDS011;65202;52.520;10.528;2023-02-13T14:28:42;26.60;;;17.40;;
76380;SDS011;65202;52.520;10.528;2023-02-13T14:31:28;34.80;;;21.48;;
76380;SDS011;65202;52.520;10.528;2023-02-13T14:34:02;16.98;;;12.15;;
76380;SDS011;65202;52.520;10.528;2023-02-13T14:36:38;33.58;;;23.55;;
76380;SDS011;65202;52.520;10.528;2023-02-13T14:39:18;25.17;;;18.23;;
76380;SDS011;65202;52.520;10.528;2023-02-13T14:41:58;19.52;;;13.93;;
76380;SDS011;65202;52.520;10.528;2023-02-13T14:47:18;40.00;;;26.55;;
76380;SDS011;65202;52.520;10.528;2023-02-13T14:49:53;28.73;;;19.55;;
76380;SDS011;65202;52.520;10.528;2023-02-13T14:52:38;26.75;;;18.65;;
76380;SDS011;65202;52.520;10.528;2023-02-13T14:55:14;11.70;;;8.38;;
76380;SDS011;65202;52.520;10.528;2023-02-13T14:57:58;17.58;;;11.18;;
76380;SDS011;65202;52.520;10.528;2023-02-13T15:00:37;15.23;;;8.85;;
76380;SDS011;65202;52.520;10.528;2023-02-13T15:03:27;10.97;;;7.03;;
76380;SDS011;65202;52.520;10.528;2023-02-13T15:06:11;12.00;;;7.72;;
76380;SDS011;65202;52.520;10.528;2023-02-13T15:08:54;13.50;;;8.18;;
76380;SDS011;65202;52.520;10.528;2023-02-13T15:14:15;11.32;;;7.75;;
76380;SDS011;65202;52.520;10.528;2023-02-13T15:20:07;11.32;;;6.90;;
76380;SDS011;65202;52.520;10.528;2023-02-13T15:22:50;10.77;;;7.22;;
76380;SDS011;65202;52.520;10.528;2023-02-13T15:25:21;11.82;;;7.65;;
76380;SDS011;65202;52.520;10.528;2023-02-13T15:28:04;17.45;;;9.43;;
76380;SDS011;65202;52.520;10.528;2023-02-13T15:30:40;18.83;;;11.15;;
76380;SDS011;65202;52.520;10.528;2023-02-13T15:33:17;19.17;;;11.90;;
76380;SDS011;65202;52.520;10.528;2023-02-13T15:35:58;16.48;;;10.60;;
76380;SDS011;65202;52.520;10.528;2023-02-13T15:38:29;16.40;;;11.00;;
76380;SDS011;65202;52.520;10.528;2023-02-13T15:41:22;15.15;;;10.00;;
76380;SDS011;65202;52.520;10.528;2023-02-13T15:43:56;16.60;;;12.27;;
76380;SDS011;65202;52.520;10.528;2023-02-13T15:46:32;29.40;;;19.52;;
76380;SDS011;65202;52.520;10.528;2023-02-13T15:49:36;22.83;;;14.00;;
76380;SDS011;65202;52.520;10.528;2023-02-13T15:52:13;47.78;;;34.38;;
76380;SDS011;65202;52.520;10.528;2023-02-13T15:54:53;35.67;;;22.90;;
76380;SDS011;65202;52.520;10.528;2023-02-13T15:57:21;22.85;;;14.25;;
76380;SDS011;65202;52.520;10.528;2023-02-13T15:59:51;25.95;;;14.05;;
76380;SDS011;65202;52.520;10.528;2023-02-13T16:02:29;21.67;;;14.07;;
76380;SDS011;65202;52.520;10.528;2023-02-13T16:05:13;35.05;;;23.23;;
76380;SDS011;65202;52.520;10.528;2023-02-13T16:07:53;24.35;;;15.85;;
76380;SDS011;65202;52.520;10.528;2023-02-13T16:10:25;17.45;;;11.13;;
76380;SDS011;65202;52.520;10.528;2023-02-13T16:12:58;18.05;;;10.73;;
76380;SDS011;65202;52.520;10.528;2023-02-13T16:15:30;15.13;;;10.17;;
76380;SDS011;65202;52.520;10.528;2023-02-13T16:18:01;14.68;;;9.52;;
76380;SDS011;65202;52.520;10.528;2023-02-13T16:20:32;30.15;;;17.67;;
76380;SDS011;65202;52.520;10.528;2023-02-13T16:23:05;32.67;;;19.15;;
76380;SDS011;65202;52.520;10.528;2023-02-13T16:25:42;21.73;;;13.30;;
76380;SDS011;65202;52.520;10.528;2023-02-13T16:33:29;15.00;;;10.15;;
76380;SDS011;65202;52.520;10.528;2023-02-13T16:35:59;17.83;;;11.43;;
76380;SDS011;65202;52.520;10.528;2023-02-13T16:38:45;18.75;;;12.60;;
76380;SDS011;65202;52.520;10.528;2023-02-13T16:57:19;16.15;;;9.85;;
76380;SDS011;65202;52.520;10.528;2023-02-13T17:00:03;15.02;;;8.57;;
76380;SDS011;65202;52.520;10.528;2023-02-13T17:02:35;19.05;;;10.55;;
76380;SDS011;65202;52.520;10.528;2023-02-13T17:07:34;27.52;;;19.40;;
76380;SDS011;65202;52.520;10.528;2023-02-13T17:10:16;25.45;;;16.48;;
76380;SDS011;65202;52.520;10.528;2023-02-13T17:15:37;15.43;;;9.98;;
76380;SDS011;65202;52.520;10.528;2023-02-13T17:18:09;18.58;;;11.90;;
76380;SDS011;65202;52.520;10.528;2023-02-13T17:20:36;22.25;;;14.98;;
76380;SDS011;65202;52.520;10.528;2023-02-13T17:23:13;23.88;;;16.10;;
76380;SDS011;65202;52.520;10.528;2023-02-13T17:25:47;198.18;;;94.35;;
76380;SDS011;65202;52.520;10.528;2023-02-13T17:28:16;61.10;;;33.50;;
76380;SDS011;65202;52.520;10.528;2023-02-13T17:30:50;30.52;;;17.63;;
76380;SDS011;65202;52.520;10.528;2023-02-13T17:33:23;26.30;;;18.23;;
76380;SDS011;65202;52.520;10.528;2023-02-13T17:35:53;27.75;;;19.17;;
76380;SDS011;65202;52.520;10.528;2023-02-13T17:38:21;21.75;;;14.30;;